Time;durP1;ratioP1;P1;durP2;ratioP2;P2;SDS_P1;SDS_P2;PMS_P1;PMS_P2;Temp;Humidity;BMP_temperature;BMP_pressure;BME280_temperature;BME280_humidity;BME280_pressure;Samples;Min_cycle;Max_cycle;Signal;HPM_P1;HPM_P2
2021/08/08 00:00:08;;;;;;;6.88;1.98;;;23.50;71.20;;;;;;6218986;23;20401;-60
2021/08/08 00:02:58;;;;;;;1.98;1.90;;;23.50;71.20;;;;;;6241652;23;20016;-59
2021/08/08 00:05:24;;;;;;;3.22;1.98;;;23.50;71.30;;;;;;6241387;23;20016;-60
2021/08/08 00:07:50;;;;;;;2.58;1.92;;;23.50;71.30;;;;;;6241403;23;20414;-60
2021/08/08 00:10:16;;;;;;;2.17;2.03;;;23.50;71.30;;;;;;6244329;23;20023;-60
2021/08/08 00:12:42;;;;;;;5.95;3.50;;;23.50;71.20;;;;;;6243552;23;20285;-60
2021/08/08 00:15:10;;;;;;;6.93;2.40;;;23.50;71.30;;;;;;6241119;23;20083;-61
2021/08/08 00:17:37;;;;;;;4.20;2.65;;;23.50;71.30;;;;;;6245476;23;20012;-60
2021/08/08 00:20:05;;;;;;;3.03;1.95;;;23.50;71.30;;;;;;6217712;23;20020;-59
2021/08/08 00:22:31;;;;;;;5.00;1.90;;;23.50;71.40;;;;;;6241403;23;20528;-60
2021/08/08 00:24:59;;;;;;;2.85;1.83;;;23.50;71.30;;;;;;6214902;23;20091;-60
2021/08/08 00:27:25;;;;;;;1.98;1.75;;;23.50;71.40;;;;;;6215306;23;20091;-60
2021/08/08 00:29:51;;;;;;;2.10;1.90;;;23.50;71.50;;;;;;6214800;23;20027;-60
2021/08/08 00:32:17;;;;;;;4.32;2.10;;;23.50;72.00;;;;;;6241779;23;20020;-60
2021/08/08 00:34:44;;;;;;;2.38;2.20;;;23.50;71.40;;;;;;6214955;23;20453;-60
2021/08/08 00:37:10;;;;;;;5.40;2.55;;;23.50;71.40;;;;;;6214816;23;20154;-60
2021/08/08 00:39:37;;;;;;;2.67;1.83;;;23.50;71.40;;;;;;6244380;23;20051;-60
2021/08/08 00:42:03;;;;;;;1.95;1.85;;;23.50;71.50;;;;;;6217157;23;20020;-60
2021/08/08 00:44:30;;;;;;;2.15;1.80;;;23.50;71.50;;;;;;6214726;23;20390;-60
2021/08/08 00:46:57;;;;;;;3.33;2.33;;;23.50;71.60;;;;;;6214485;23;20541;-60
2021/08/08 00:49:25;;;;;;;4.18;1.60;;;23.50;71.50;;;;;;6217854;23;20405;-59
2021/08/08 00:51:53;;;;;;;2.42;1.90;;;23.50;71.50;;;;;;6214679;23;20088;-60
2021/08/08 00:54:23;;;;;;;3.22;1.67;;;23.50;71.30;;;;;;6215630;23;20024;-60
2021/08/08 00:56:49;;;;;;;2.35;1.90;;;23.50;71.10;;;;;;6241048;23;20381;-60
2021/08/08 00:59:15;;;;;;;1.73;1.60;;;23.50;71.00;;;;;;6214716;23;20035;-60
2021/08/08 01:01:46;;;;;;;2.80;1.60;;;23.50;71.30;;;;;;6214525;23;20032;-60
2021/08/08 01:04:22;;;;;;;1.73;1.73;;;23.50;71.40;;;;;;6242785;23;20091;-60
2021/08/08 01:07:03;;;;;;;2.47;2.28;;;23.40;71.40;;;;;;6190542;23;20127;-59
2021/08/08 01:09:38;;;;;;;1.73;1.63;;;23.40;71.60;;;;;;6216057;23;20086;-60
2021/08/08 01:12:06;;;;;;;1.65;1.50;;;23.40;71.60;;;;;;6214554;23;20091;-60
2021/08/08 01:14:37;;;;;;;1.60;1.50;;;23.40;71.70;;;;;;6218030;23;20540;-60
2021/08/08 01:17:07;;;;;;;1.92;1.80;;;23.30;71.60;;;;;;6216473;23;20020;-60
2021/08/08 01:19:43;;;;;;;4.10;1.60;;;23.40;72.30;;;;;;6214487;23;20381;-61
2021/08/08 01:22:10;;;;;;;2.00;1.83;;;23.40;71.70;;;;;;6245139;23;20450;-60
2021/08/08 01:24:38;;;;;;;4.93;1.67;;;23.40;71.70;;;;;;6214259;23;20070;-60
2021/08/08 01:27:06;;;;;;;2.00;1.90;;;23.40;71.70;;;;;;6184558;23;20371;-60
2021/08/08 01:29:33;;;;;;;2.35;1.60;;;23.40;71.70;;;;;;6179459;23;20395;-60
2021/08/08 01:31:59;;;;;;;2.90;1.90;;;23.40;71.70;;;;;;6179429;23;20067;-59
2021/08/08 01:34:33;;;;;;;2.28;1.40;;;23.40;71.80;;;;;;6179436;23;20017;-60
2021/08/08 01:37:03;;;;;;;6.05;2.15;;;23.50;71.40;;;;;;6179147;23;20099;-60
2021/08/08 01:39:34;;;;;;;3.95;2.03;;;23.50;71.10;;;;;;6179530;23;20025;-59
2021/08/08 01:42:05;;;;;;;6.07;1.45;;;23.50;71.10;;;;;;6182238;23;20463;-59
2021/08/08 01:44:46;;;;;;;1.83;1.65;;;23.50;71.20;;;;;;6179335;23;20404;-59
2021/08/08 01:47:14;;;;;;;1.75;1.65;;;23.50;71.40;;;;;;6184961;23;20031;-60
2021/08/08 01:49:44;;;;;;;3.72;1.80;;;23.40;71.60;;;;;;6179688;23;20048;-60
2021/08/08 01:52:12;;;;;;;1.52;1.38;;;23.40;71.70;;;;;;6181382;23;20032;-60
2021/08/08 01:54:50;;;;;;;2.20;0.88;;;23.40;71.70;;;;;;6179152;23;20492;-59
2021/08/08 01:57:23;;;;;;;1.92;1.73;;;23.40;71.60;;;;;;6182024;23;20087;-60
2021/08/08 01:59:55;;;;;;;2.10;1.35;;;23.40;71.50;;;;;;6180054;23;20049;-60
2021/08/08 02:02:22;;;;;;;1.48;1.38;;;23.40;71.60;;;;;;6182535;23;20028;-60
2021/08/08 02:04:56;;;;;;;1.58;1.30;;;23.40;71.60;;;;;;6181103;23;20045;-60
2021/08/08 02:07:22;;;;;;;1.42;1.35;;;23.40;71.80;;;;;;6184896;23;20021;-59
2021/08/08 02:09:53;;;;;;;1.73;1.63;;;23.40;71.80;;;;;;6181935;23;20021;-61
2021/08/08 02:12:24;;;;;;;1.83;1.73;;;23.40;71.80;;;;;;6182485;23;20052;-60
2021/08/08 02:14:51;;;;;;;1.10;1.10;;;23.40;71.90;;;;;;6183895;23;20016;-60
2021/08/08 02:17:23;;;;;;;1.70;1.52;;;23.30;71.90;;;;;;6180612;23;20041;-60
2021/08/08 02:19:51;;;;;;;2.15;1.25;;;23.30;72.00;;;;;;6180936;23;20016;-60
2021/08/08 02:22:19;;;;;;;3.92;1.35;;;23.40;72.00;;;;;;6184821;23;20028;-59
2021/08/08 02:24:49;;;;;;;1.73;1.63;;;23.40;72.00;;;;;;6180668;23;20041;-61
2021/08/08 02:27:19;;;;;;;2.97;1.50;;;23.40;72.00;;;;;;6181668;23;20027;-60
2021/08/08 02:29:52;;;;;;;2.03;1.92;;;23.40;72.00;;;;;;6180988;23;20720;-60
2021/08/08 02:32:20;;;;;;;2.35;1.98;;;23.40;72.00;;;;;;6183876;23;20363;-60
2021/08/08 02:34:46;;;;;;;1.90;1.60;;;23.40;71.90;;;;;;6181144;23;20913;-60
2021/08/08 02:37:15;;;;;;;1.52;1.42;;;23.40;72.00;;;;;;6180549;23;20479;-60
2021/08/08 02:39:45;;;;;;;1.77;1.67;;;23.40;71.90;;;;;;6180814;23;20028;-60
2021/08/08 02:42:11;;;;;;;2.13;1.33;;;23.40;72.00;;;;;;6183795;23;20355;-60
2021/08/08 02:44:40;;;;;;;3.03;1.63;;;23.40;72.00;;;;;;6181081;23;20049;-60
2021/08/08 02:47:08;;;;;;;2.20;1.60;;;23.30;72.00;;;;;;6180338;23;20017;-60
2021/08/08 02:49:35;;;;;;;1.48;1.42;;;23.40;72.00;;;;;;6184763;23;20025;-60
2021/08/08 02:52:03;;;;;;;2.72;1.40;;;23.40;71.90;;;;;;6180541;23;20067;-60
2021/08/08 02:54:29;;;;;;;3.05;1.27;;;23.40;71.80;;;;;;6206064;23;20096;-60
2021/08/08 02:56:55;;;;;;;3.33;1.52;;;23.40;71.80;;;;;;6180586;23;20467;-61
2021/08/08 02:59:22;;;;;;;7.07;1.75;;;23.30;71.70;;;;;;6180602;23;20025;-60
2021/08/08 03:01:50;;;;;;;4.85;1.77;;;23.40;71.80;;;;;;6183564;23;20021;-60
2021/08/08 03:04:16;;;;;;;5.43;1.63;;;23.40;71.70;;;;;;6180389;23;20052;-60
2021/08/08 03:06:45;;;;;;;3.00;2.03;;;23.40;71.70;;;;;;6181807;23;20502;-60
2021/08/08 03:09:12;;;;;;;6.10;2.03;;;23.30;72.30;;;;;;6156208;23;20040;-60
2021/08/08 03:11:45;;;;;;;1.65;1.55;;;23.40;71.90;;;;;;6183505;23;20023;-60
2021/08/08 03:14:17;;;;;;;2.05;1.00;;;23.30;71.80;;;;;;6180629;23;20342;-59
2021/08/08 03:16:46;;;;;;;1.92;1.52;;;23.30;71.90;;;;;;6180533;23;20533;-60
2021/08/08 03:19:15;;;;;;;1.65;1.10;;;23.40;71.80;;;;;;6181948;23;20047;-61
2021/08/08 03:21:42;;;;;;;1.60;1.45;;;23.30;71.80;;;;;;6183527;23;20032;-60
2021/08/08 03:24:08;;;;;;;4.45;1.40;;;23.30;71.70;;;;;;6182169;23;20028;-60
2021/08/08 03:26:35;;;;;;;8.07;1.27;;;23.30;71.60;;;;;;6179897;23;20031;-60
2021/08/08 03:29:02;;;;;;;1.58;0.93;;;23.30;71.70;;;;;;6159258;23;20060;-60
2021/08/08 03:31:30;;;;;;;3.15;0.88;;;23.30;71.50;;;;;;6183145;23;20031;-59
2021/08/08 03:33:56;;;;;;;5.90;1.20;;;23.30;71.40;;;;;;6179929;23;20021;-59
2021/08/08 03:36:24;;;;;;;3.30;1.20;;;23.30;71.50;;;;;;6180180;23;20029;-62
2021/08/08 03:38:52;;;;;;;1.58;1.30;;;23.30;71.60;;;;;;6184016;23;20017;-60
2021/08/08 03:41:19;;;;;;;4.55;1.23;;;23.30;71.40;;;;;;6180504;23;20072;-60
2021/08/08 03:43:47;;;;;;;2.90;1.05;;;23.40;71.30;;;;;;6179894;23;20028;-60
2021/08/08 03:46:14;;;;;;;1.02;1.02;;;23.30;71.20;;;;;;6179893;23;20481;-61
2021/08/08 03:48:41;;;;;;;3.05;0.93;;;23.20;71.40;;;;;;6182057;23;20110;-60
2021/08/08 03:51:09;;;;;;;1.10;1.10;;;23.20;71.60;;;;;;6183999;23;20471;-60
2021/08/08 03:53:35;;;;;;;1.50;0.90;;;23.20;71.60;;;;;;6158269;23;20048;-60
2021/08/08 03:56:02;;;;;;;0.90;0.90;;;23.10;71.60;;;;;;6179828;23;20064;-60
2021/08/08 03:58:32;;;;;;;3.92;1.05;;;23.10;71.70;;;;;;6185369;23;20032;-60
2021/08/08 04:01:02;;;;;;;1.08;1.00;;;23.10;71.80;;;;;;6182492;23;20479;-60
2021/08/08 04:03:31;;;;;;;2.13;1.08;;;23.00;71.90;;;;;;6180020;23;20055;-60
2021/08/08 04:05:57;;;;;;;1.00;0.80;;;23.00;71.90;;;;;;6181383;23;20025;-60
2021/08/08 04:08:23;;;;;;;1.80;0.80;;;23.00;71.90;;;;;;6179838;23;20024;-60
2021/08/08 04:10:53;;;;;;;0.73;0.70;;;23.00;71.80;;;;;;6179993;23;20363;-60
2021/08/08 04:13:19;;;;;;;0.98;0.90;;;23.00;71.90;;;;;;6179825;23;20017;-60
2021/08/08 04:15:45;;;;;;;1.30;0.80;;;23.00;72.00;;;;;;6181063;23;20028;-61
2021/08/08 04:18:12;;;;;;;0.60;0.60;;;23.00;71.80;;;;;;6179845;23;20056;-60
2021/08/08 04:20:40;;;;;;;5.95;0.90;;;23.00;71.80;;;;;;6182820;23;20055;-60
2021/08/08 04:23:08;;;;;;;0.60;0.50;;;23.00;71.70;;;;;;6179524;23;20020;-60
2021/08/08 04:25:35;;;;;;;1.35;0.50;;;23.00;71.70;;;;;;6179405;23;20055;-60
2021/08/08 04:28:02;;;;;;;1.10;1.00;;;23.00;71.90;;;;;;6184899;23;20024;-60
2021/08/08 04:30:28;;;;;;;4.55;0.93;;;23.00;71.70;;;;;;6184373;23;20021;-60
2021/08/08 04:32:55;;;;;;;1.15;0.57;;;23.00;71.60;;;;;;6179874;23;20401;-60
2021/08/08 04:35:21;;;;;;;1.02;0.70;;;23.10;71.30;;;;;;6179797;23;20028;-60
2021/08/08 04:37:48;;;;;;;4.35;0.82;;;23.10;71.20;;;;;;6179917;23;20146;-60
2021/08/08 04:40:14;;;;;;;2.20;0.85;;;23.00;71.40;;;;;;6179588;23;20071;-60
2021/08/08 04:42:40;;;;;;;1.92;0.88;;;23.00;71.60;;;;;;6180069;23;20025;-60
2021/08/08 04:45:09;;;;;;;2.60;0.77;;;23.00;71.50;;;;;;6179466;23;20025;-60
2021/08/08 04:47:35;;;;;;;3.20;0.47;;;23.10;71.10;;;;;;6179434;23;20107;-59
2021/08/08 04:50:03;;;;;;;4.53;0.98;;;23.00;71.00;;;;;;6182844;23;20024;-60
2021/08/08 04:52:37;;;;;;;5.18;0.95;;;23.10;71.00;;;;;;6182287;23;20075;-60
2021/08/08 04:55:05;;;;;;;1.88;0.82;;;23.10;70.90;;;;;;6179240;23;20328;-60
2021/08/08 04:57:31;;;;;;;3.33;0.70;;;23.10;70.70;;;;;;6179936;23;20016;-60
2021/08/08 04:59:57;;;;;;;4.40;0.70;;;23.10;70.70;;;;;;6182638;23;20352;-60
2021/08/08 05:02:24;;;;;;;2.92;0.70;;;23.10;70.70;;;;;;6181188;23;20040;-60
2021/08/08 05:04:50;;;;;;;2.50;0.60;;;23.10;70.90;;;;;;6179505;23;20370;-60
2021/08/08 05:07:17;;;;;;;0.85;0.85;;;23.10;70.80;;;;;;6179191;23;20352;-60
2021/08/08 05:09:43;;;;;;;1.10;0.75;;;23.00;70.80;;;;;;6179635;23;20052;-60
2021/08/08 05:12:10;;;;;;;1.65;0.70;;;23.00;70.90;;;;;;6182071;23;20025;-60
2021/08/08 05:14:41;;;;;;;1.48;0.93;;;23.10;71.00;;;;;;6180637;23;20032;-60
2021/08/08 05:17:07;;;;;;;0.60;0.60;;;23.10;71.10;;;;;;6179029;23;20093;-60
2021/08/08 05:19:34;;;;;;;1.77;0.90;;;23.10;71.00;;;;;;6182902;23;20415;-59
2021/08/08 05:22:00;;;;;;;1.00;0.90;;;23.20;70.80;;;;;;6182002;23;20052;-60
2021/08/08 05:24:29;;;;;;;2.33;0.77;;;23.10;71.00;;;;;;6180652;23;20052;-60
2021/08/08 05:26:56;;;;;;;4.80;1.88;;;23.10;71.00;;;;;;6179142;23;20025;-60
2021/08/08 05:29:26;;;;;;;0.73;0.73;;;23.20;71.00;;;;;;6182510;23;20099;-60
2021/08/08 05:31:52;;;;;;;1.17;0.80;;;23.20;71.00;;;;;;6179354;23;20106;-60
2021/08/08 05:34:18;;;;;;;0.68;0.65;;;23.20;70.90;;;;;;6180739;23;20029;-60
2021/08/08 05:36:44;;;;;;;2.90;0.50;;;23.30;70.70;;;;;;6181509;23;20025;-60
2021/08/08 05:39:11;;;;;;;1.15;0.70;;;23.20;70.80;;;;;;6181666;23;20041;-60
2021/08/08 05:41:38;;;;;;;1.95;0.70;;;23.20;71.00;;;;;;6184133;23;20084;-60
2021/08/08 05:44:04;;;;;;;0.50;0.50;;;23.20;71.00;;;;;;6182835;23;20061;-60
2021/08/08 05:46:30;;;;;;;3.60;1.05;;;23.20;70.90;;;;;;6181051;23;20063;-60
2021/08/08 05:48:57;;;;;;;2.90;0.93;;;23.20;71.00;;;;;;6181174;23;20021;-60
2021/08/08 05:51:23;;;;;;;1.77;0.75;;;23.30;71.00;;;;;;6184298;23;20025;-60
2021/08/08 05:53:49;;;;;;;4.95;1.23;;;23.30;71.00;;;;;;6181027;23;20494;-59
2021/08/08 05:56:16;;;;;;;3.20;0.68;;;23.30;71.10;;;;;;6181277;23;20021;-60
2021/08/08 05:58:43;;;;;;;4.43;1.02;;;23.30;71.10;;;;;;6181281;23;20473;-60
2021/08/08 06:01:09;;;;;;;1.27;0.75;;;23.40;71.10;;;;;;6181138;23;20021;-60
2021/08/08 06:03:35;;;;;;;0.57;0.57;;;23.40;70.90;;;;;;6181422;23;20474;-60
2021/08/08 06:06:02;;;;;;;0.43;0.43;;;23.40;70.80;;;;;;6181350;23;20494;-60
2021/08/08 06:08:29;;;;;;;4.72;0.90;;;23.40;70.70;;;;;;6182186;23;20031;-60
2021/08/08 06:10:55;;;;;;;3.53;0.88;;;23.40;70.70;;;;;;6186479;23;20021;-60
2021/08/08 06:13:21;;;;;;;0.55;0.50;;;23.50;70.60;;;;;;6183860;23;20025;-60
2021/08/08 06:15:52;;;;;;;1.20;0.40;;;23.50;70.10;;;;;;6180477;23;20438;-59
2021/08/08 06:18:19;;;;;;;4.72;0.50;;;23.50;70.20;;;;;;6180970;23;20024;-60
2021/08/08 06:20:45;;;;;;;1.83;0.60;;;23.60;70.20;;;;;;6184543;23;20021;-60
2021/08/08 06:23:15;;;;;;;3.25;0.60;;;23.60;69.90;;;;;;6180842;23;20048;-60
2021/08/08 06:25:42;;;;;;;1.55;0.57;;;23.60;70.00;;;;;;6181146;23;20021;-60
2021/08/08 06:28:08;;;;;;;1.27;0.73;;;23.60;70.10;;;;;;6180986;23;20020;-60
2021/08/08 06:30:34;;;;;;;1.27;0.50;;;23.60;70.00;;;;;;6180628;23;20021;-60
2021/08/08 06:33:00;;;;;;;0.68;0.68;;;23.70;69.90;;;;;;6183823;23;20491;-60
2021/08/08 06:35:27;;;;;;;0.52;0.43;;;23.70;69.30;;;;;;6180917;23;20021;-60
2021/08/08 06:37:53;;;;;;;0.80;0.50;;;23.70;69.40;;;;;;6181918;23;20467;-61
2021/08/08 06:40:20;;;;;;;3.15;0.70;;;23.70;69.20;;;;;;6182422;23;20410;-60
2021/08/08 06:42:46;;;;;;;0.28;0.28;;;23.70;69.40;;;;;;6185466;23;20101;-60
2021/08/08 06:45:15;;;;;;;0.60;0.60;;;23.70;69.20;;;;;;6181759;23;20048;-61
2021/08/08 06:47:41;;;;;;;0.28;0.28;;;23.70;69.50;;;;;;6180998;23;20017;-60
2021/08/08 06:50:08;;;;;;;0.57;0.55;;;23.70;69.70;;;;;;6180684;23;20024;-60
2021/08/08 06:52:34;;;;;;;6.13;0.70;;;23.70;69.80;;;;;;6180737;23;20021;-60
2021/08/08 06:55:01;;;;;;;3.85;0.60;;;23.70;69.70;;;;;;6180847;23;20558;-60
2021/08/08 06:57:28;;;;;;;4.20;0.52;;;23.70;69.80;;;;;;6182045;23;20024;-60
2021/08/08 06:59:59;;;;;;;0.80;0.60;;;23.60;69.90;;;;;;6180521;23;20021;-60
2021/08/08 07:02:25;;;;;;;2.75;0.63;;;23.60;69.90;;;;;;6185276;23;20021;-60
2021/08/08 07:04:51;;;;;;;0.75;0.75;;;23.70;69.80;;;;;;6184204;23;20107;-60
2021/08/08 07:07:18;;;;;;;2.50;0.77;;;23.70;69.90;;;;;;6180517;23;20482;-60
2021/08/08 07:09:44;;;;;;;3.17;0.60;;;23.80;69.60;;;;;;6180801;23;20100;-60
2021/08/08 07:12:12;;;;;;;2.72;0.60;;;23.90;69.40;;;;;;6184598;23;20048;-60
2021/08/08 07:14:42;;;;;;;0.93;0.47;;;23.90;69.30;;;;;;6180354;23;20489;-60
2021/08/08 07:17:08;;;;;;;1.48;0.43;;;23.80;69.30;;;;;;6181700;23;20515;-60
2021/08/08 07:19:35;;;;;;;1.92;0.70;;;23.80;69.50;;;;;;6180281;23;20017;-60
2021/08/08 07:22:02;;;;;;;0.63;0.63;;;23.80;69.60;;;;;;6180543;23;20051;-60
2021/08/08 07:24:29;;;;;;;5.15;0.75;;;23.80;69.60;;;;;;6182915;23;20032;-60
2021/08/08 07:26:57;;;;;;;2.95;0.80;;;23.80;69.50;;;;;;6181665;23;20355;-60
2021/08/08 07:29:25;;;;;;;0.40;0.40;;;23.80;69.70;;;;;;6180068;23;20044;-61
2021/08/08 07:31:53;;;;;;;1.45;0.50;;;23.70;69.80;;;;;;6184157;23;20024;-60
2021/08/08 07:34:20;;;;;;;1.38;0.40;;;23.90;69.60;;;;;;6180588;23;20028;-60
2021/08/08 07:36:47;;;;;;;0.55;0.50;;;23.80;69.60;;;;;;6180258;23;20021;-60
2021/08/08 07:39:13;;;;;;;2.10;0.63;;;23.90;69.70;;;;;;6181946;23;20418;-61
2021/08/08 07:41:40;;;;;;;6.15;0.98;;;23.80;69.90;;;;;;6186079;23;20025;-60
2021/08/08 07:44:06;;;;;;;1.80;0.60;;;23.90;70.00;;;;;;6181491;23;20033;-60
2021/08/08 07:46:32;;;;;;;0.63;0.63;;;23.80;69.80;;;;;;6181433;23;20044;-61
2021/08/08 07:48:59;;;;;;;1.45;0.90;;;23.90;69.70;;;;;;6179981;23;20463;-62
2021/08/08 07:51:26;;;;;;;0.90;0.70;;;23.90;69.50;;;;;;6180069;23;20123;-60
2021/08/08 07:53:53;;;;;;;2.08;0.50;;;24.00;69.40;;;;;;6183241;23;20024;-60
2021/08/08 07:56:19;;;;;;;7.22;0.60;;;24.10;69.40;;;;;;6181970;23;20469;-60
2021/08/08 07:58:46;;;;;;;2.45;0.50;;;24.10;69.40;;;;;;6179664;23;20056;-60
2021/08/08 08:01:13;;;;;;;1.23;0.57;;;24.10;69.50;;;;;;6179944;23;20028;-60
2021/08/08 08:03:40;;;;;;;0.90;0.47;;;24.00;70.10;;;;;;6184947;23;20017;-60
2021/08/08 08:06:06;;;;;;;0.75;0.73;;;23.90;70.40;;;;;;6179963;23;20491;-60
2021/08/08 08:08:32;;;;;;;1.35;0.68;;;24.00;70.60;;;;;;6181445;23;20112;-60
2021/08/08 08:10:58;;;;;;;4.47;0.65;;;24.00;70.70;;;;;;6180238;23;20048;-60
2021/08/08 08:13:24;;;;;;;0.75;0.75;;;23.90;70.80;;;;;;6178923;23;20522;-59
2021/08/08 08:15:50;;;;;;;0.73;0.65;;;23.90;71.20;;;;;;6175895;23;20021;-61
2021/08/08 08:18:16;;;;;;;2.20;0.68;;;23.90;71.20;;;;;;6176550;23;20459;-59
2021/08/08 08:20:43;;;;;;;6.55;0.88;;;23.90;72.40;;;;;;6176507;23;20056;-61
2021/08/08 08:23:09;;;;;;;8.25;1.30;;;23.90;73.40;;;;;;6181706;23;20025;-60
2021/08/08 08:25:37;;;;;;;0.95;0.95;;;23.80;73.70;;;;;;6177633;23;20056;-61
2021/08/08 08:28:03;;;;;;;3.20;1.02;;;23.80;73.50;;;;;;6174073;23;20155;-61
2021/08/08 08:30:29;;;;;;;0.73;0.60;;;23.80;73.70;;;;;;6176837;23;20032;-59
2021/08/08 08:32:55;;;;;;;3.53;0.80;;;23.80;73.50;;;;;;6178421;23;20071;-58
2021/08/08 08:35:23;;;;;;;1.20;1.00;;;23.80;73.60;;;;;;6175354;23;20111;-59
2021/08/08 08:37:49;;;;;;;4.03;1.23;;;23.80;73.40;;;;;;6176863;23;20100;-57
2021/08/08 08:40:15;;;;;;;1.15;0.77;;;23.80;72.80;;;;;;6176105;23;20099;-62
2021/08/08 08:42:56;;;;;;;3.90;0.77;;;23.90;72.50;;;;;;6177533;23;20423;-61
2021/08/08 08:45:22;;;;;;;3.22;0.65;;;23.90;72.60;;;;;;6179704;23;20040;-61
2021/08/08 08:47:48;;;;;;;1.52;0.95;;;24.00;72.70;;;;;;6178054;23;20099;-62
2021/08/08 08:50:15;;;;;;;0.50;0.50;;;24.00;73.30;;;;;;6180545;23;20021;-62
2021/08/08 08:52:43;;;;;;;3.08;0.70;;;24.00;72.60;;;;;;6175161;23;20514;-62
2021/08/08 08:55:10;;;;;;;4.43;0.70;;;24.00;72.80;;;;;;6173679;23;20047;-66
2021/08/08 08:57:37;;;;;;;0.80;0.75;;;24.00;73.20;;;;;;6179778;23;20021;-63
2021/08/08 09:00:07;;;;;;;0.98;0.55;;;23.90;73.30;;;;;;6179661;23;20597;-63
2021/08/08 09:02:34;;;;;;;0.70;0.70;;;23.90;74.10;;;;;;6177943;23;20408;-64
2021/08/08 09:05:04;;;;;;;4.22;0.88;;;23.90;73.20;;;;;;6181041;23;20028;-63
2021/08/08 09:07:30;;;;;;;2.90;0.65;;;23.90;74.30;;;;;;6180020;23;20028;-63
2021/08/08 09:09:57;;;;;;;6.45;1.05;;;23.90;73.30;;;;;;6149308;23;20055;-65
2021/08/08 09:12:25;;;;;;;2.35;0.80;;;23.90;74.50;;;;;;6207116;23;20455;-67
2021/08/08 09:15:03;;;;;;;7.40;0.90;;;24.00;74.70;;;;;;6175953;23;20017;-65
2021/08/08 09:17:37;;;;;;;1.70;0.60;;;23.90;73.90;;;;;;6177504;23;20025;-65
2021/08/08 09:20:09;;;;;;;5.55;0.95;;;23.90;74.00;;;;;;6178201;23;20100;-66
2021/08/08 09:22:40;;;;;;;0.93;0.93;;;23.90;74.00;;;;;;6174229;23;20017;-66
2021/08/08 09:25:09;;;;;;;0.85;0.85;;;23.80;74.30;;;;;;6202633;23;20474;-68
2021/08/08 09:27:38;;;;;;;1.58;0.82;;;23.80;74.40;;;;;;6186886;23;20027;-61
2021/08/08 09:30:20;;;;;;;4.82;1.00;;;23.80;74.80;;;;;;6232377;23;20087;-66
2021/08/08 09:32:58;;;;;;;2.88;1.27;;;23.60;75.20;;;;;;6216917;23;20031;-70
2021/08/08 09:35:35;;;;;;;1.48;0.50;;;23.60;75.80;;;;;;6211746;23;20054;-63
2021/08/08 09:38:03;;;;;;;1.05;1.05;;;23.60;76.10;;;;;;6212372;23;20043;-71
2021/08/08 09:40:36;;;;;;;5.72;1.55;;;23.50;76.40;;;;;;6238709;23;20394;-69
2021/08/08 09:43:07;;;;;;;3.00;0.77;;;23.50;76.50;;;;;;6240216;23;20028;-69
2021/08/08 09:45:41;;;;;;;0.98;0.98;;;23.50;76.60;;;;;;6211179;23;20039;-71
2021/08/08 09:48:11;;;;;;;1.00;0.80;;;23.50;76.70;;;;;;6238613;23;20465;-70
2021/08/08 09:50:42;;;;;;;3.90;1.25;;;23.50;76.80;;;;;;6211216;23;20074;-71
2021/08/08 09:53:15;;;;;;;3.95;0.93;;;23.50;76.80;;;;;;6214846;23;21005;-70
2021/08/08 09:55:41;;;;;;;2.33;1.40;;;23.50;76.80;;;;;;6210564;23;20535;-71
2021/08/08 09:58:24;;;;;;;1.55;1.15;;;23.50;76.80;;;;;;6185646;23;20016;-68
2021/08/08 10:00:57;;;;;;;4.03;1.45;;;23.50;76.80;;;;;;6237077;23;20047;-66
2021/08/08 10:03:23;;;;;;;2.15;1.30;;;23.50;76.80;;;;;;6238973;23;20031;-64
2021/08/08 10:05:52;;;;;;;4.00;1.73;;;23.50;76.80;;;;;;6236871;23;20074;-64
2021/08/08 10:08:23;;;;;;;3.15;0.98;;;23.50;76.90;;;;;;6237336;23;20059;-64
2021/08/08 10:10:54;;;;;;;9.98;1.60;;;23.50;76.90;;;;;;6241049;23;20386;-65
2021/08/08 10:13:29;;;;;;;3.42;1.38;;;23.50;76.90;;;;;;6237349;23;20390;-65
2021/08/08 10:15:57;;;;;;;1.60;1.50;;;23.50;76.90;;;;;;6240575;23;20089;-64
2021/08/08 10:18:26;;;;;;;2.05;1.35;;;23.50;76.90;;;;;;6239510;23;20043;-66
2021/08/08 10:20:53;;;;;;;3.33;1.73;;;23.50;76.90;;;;;;6240365;23;20066;-64
2021/08/08 10:23:21;;;;;;;2.67;1.17;;;23.50;76.80;;;;;;6214825;23;20024;-67
2021/08/08 10:25:51;;;;;;;4.15;1.33;;;23.50;76.90;;;;;;6239613;23;20031;-69
2021/08/08 10:28:19;;;;;;;1.73;1.13;;;23.50;77.00;;;;;;6243795;23;20350;-63
2021/08/08 10:30:46;;;;;;;4.95;1.10;;;23.60;77.00;;;;;;6241710;23;20024;-63
2021/08/08 10:33:13;;;;;;;3.05;1.13;;;23.60;76.80;;;;;;6240453;23;20043;-63
2021/08/08 10:35:47;;;;;;;7.10;1.17;;;23.60;76.80;;;;;;6244918;23;20031;-63
2021/08/08 10:38:15;;;;;;;4.00;1.05;;;23.60;76.90;;;;;;6243345;23;20535;-63
2021/08/08 10:40:43;;;;;;;5.53;1.33;;;23.60;76.90;;;;;;6214499;23;20109;-65
2021/08/08 10:43:31;;;;;;;1.70;1.30;;;23.60;77.00;;;;;;6241134;23;20466;-63
2021/08/08 10:46:05;;;;;;;3.35;1.30;;;23.60;77.00;;;;;;6240782;23;20051;-63
2021/08/08 10:48:39;;;;;;;3.70;1.20;;;23.60;77.00;;;;;;6240728;23;20047;-63
2021/08/08 10:51:35;;;;;;;2.28;1.10;;;23.60;77.00;;;;;;6214182;23;20043;-63
2021/08/08 10:54:06;;;;;;;4.05;1.08;;;23.60;77.00;;;;;;6227626;23;20028;-63
2021/08/08 10:56:46;;;;;;;1.20;1.10;;;23.60;77.00;;;;;;6240876;23;20482;-63
2021/08/08 10:59:14;;;;;;;1.50;1.10;;;23.60;77.10;;;;;;6241446;23;20020;-63
2021/08/08 11:01:40;;;;;;;1.33;1.17;;;23.60;77.10;;;;;;6241018;23;20064;-63
2021/08/08 11:04:07;;;;;;;0.90;0.88;;;23.60;77.10;;;;;;6244547;23;20024;-63
2021/08/08 11:06:35;;;;;;;2.35;0.93;;;23.60;77.10;;;;;;6243124;23;20073;-62
2021/08/08 11:09:02;;;;;;;2.20;1.25;;;23.60;77.10;;;;;;6240696;23;20035;-63
2021/08/08 11:11:33;;;;;;;1.08;1.05;;;23.60;77.10;;;;;;6214181;23;20437;-63
2021/08/08 11:14:10;;;;;;;1.42;1.13;;;23.60;77.10;;;;;;6217413;23;20417;-62
2021/08/08 11:16:36;;;;;;;2.70;0.98;;;23.60;77.10;;;;;;6240729;23;20063;-63
2021/08/08 11:19:02;;;;;;;3.33;1.23;;;23.60;77.10;;;;;;6240864;23;20016;-63
2021/08/08 11:21:29;;;;;;;2.65;0.75;;;23.60;77.00;;;;;;6244930;23;20082;-62
2021/08/08 11:23:57;;;;;;;1.95;0.93;;;23.60;77.20;;;;;;6240972;23;20043;-62
2021/08/08 11:26:24;;;;;;;2.67;1.10;;;23.60;77.10;;;;;;6240558;23;20020;-63
2021/08/08 11:29:01;;;;;;;1.05;1.05;;;23.60;77.10;;;;;;6240938;23;20024;-63
2021/08/08 11:31:29;;;;;;;1.13;1.10;;;23.60;77.10;;;;;;6240804;23;20047;-63
2021/08/08 11:34:03;;;;;;;1.67;1.58;;;23.60;77.10;;;;;;6216781;23;20020;-63
2021/08/08 11:36:32;;;;;;;1.55;1.10;;;23.60;77.10;;;;;;6240550;23;20047;-64
2021/08/08 11:38:59;;;;;;;2.15;1.08;;;23.60;77.10;;;;;;6240749;23;20043;-63
2021/08/08 11:41:26;;;;;;;1.00;1.00;;;23.60;77.00;;;;;;6243770;23;20020;-63
2021/08/08 11:44:06;;;;;;;0.88;0.88;;;23.60;77.00;;;;;;6240654;23;20395;-63
2021/08/08 11:46:33;;;;;;;1.90;1.05;;;23.60;77.00;;;;;;6240099;23;20020;-63
2021/08/08 11:48:59;;;;;;;1.05;0.98;;;23.60;77.10;;;;;;6240275;23;20020;-63
2021/08/08 11:51:25;;;;;;;2.10;1.23;;;23.60;77.10;;;;;;6242765;23;20361;-63
2021/08/08 11:53:56;;;;;;;2.38;0.85;;;23.60;77.10;;;;;;6240686;23;20366;-66
2021/08/08 11:56:28;;;;;;;2.72;0.98;;;23.60;77.30;;;;;;6213329;23;20043;-67
2021/08/08 11:58:55;;;;;;;;;;;23.60;77.30;;;;;;6241144;23;20016;-69
2021/08/08 12:01:25;;;;;;;2.03;0.63;;;23.80;76.50;;;;;;6240656;23;19919;-70
2021/08/08 12:03:53;;;;;;;2.38;0.85;;;23.90;75.70;;;;;;6213666;23;20050;-71
2021/08/08 12:06:21;;;;;;;0.90;0.90;;;24.10;75.40;;;;;;6240132;23;20024;-69
2021/08/08 12:08:52;;;;;;;3.10;0.68;;;24.10;75.20;;;;;;6215714;23;20016;-63
2021/08/08 12:11:20;;;;;;;2.17;0.82;;;24.20;74.80;;;;;;6213831;23;20031;-67
2021/08/08 12:14:03;;;;;;;1.17;0.95;;;24.20;74.50;;;;;;6240240;23;20047;-65
2021/08/08 12:16:38;;;;;;;1.15;0.75;;;24.20;74.60;;;;;;6240079;23;20588;-63
2021/08/08 12:19:05;;;;;;;1.40;0.45;;;24.20;74.70;;;;;;6239799;23;20027;-69
2021/08/08 12:21:36;;;;;;;2.30;1.15;;;24.10;74.80;;;;;;6240440;23;20052;-68
2021/08/08 12:24:05;;;;;;;1.55;0.85;;;24.10;74.90;;;;;;6241991;23;20035;-69
2021/08/08 12:26:31;;;;;;;2.40;0.70;;;24.10;74.90;;;;;;6213243;23;20099;-67
2021/08/08 12:29:05;;;;;;;5.13;1.58;;;24.20;74.80;;;;;;6188176;23;20043;-68
2021/08/08 12:31:49;;;;;;;1.98;1.15;;;24.20;74.80;;;;;;6242274;23;20565;-69
2021/08/08 12:34:15;;;;;;;2.42;1.55;;;24.10;74.80;;;;;;6239867;23;20109;-62
2021/08/08 12:36:44;;;;;;;2.65;1.35;;;24.10;74.60;;;;;;6240004;23;20450;-64
2021/08/08 12:39:11;;;;;;;2.83;1.30;;;24.10;74.80;;;;;;6239434;23;20050;-63
2021/08/08 12:41:39;;;;;;;4.93;1.33;;;24.10;74.90;;;;;;6239683;23;20130;-69
2021/08/08 12:44:07;;;;;;;5.70;1.13;;;24.00;75.20;;;;;;6242803;23;20030;-68
2021/08/08 12:46:38;;;;;;;5.40;1.17;;;23.90;75.30;;;;;;6239892;23;20026;-66
2021/08/08 12:49:09;;;;;;;3.13;1.15;;;23.90;75.80;;;;;;6239480;23;20082;-72
2021/08/08 12:51:36;;;;;;;6.65;1.25;;;23.90;76.30;;;;;;6216770;23;20074;-71
2021/08/08 12:54:02;;;;;;;2.28;0.75;;;23.80;76.50;;;;;;6241628;23;20020;-74